createdAt,value
2023-05-16T08:40:34.381Z,15.90
2023-05-16T08:43:02.253Z,15.90
2023-05-16T08:45:31.316Z,16.00
2023-05-16T08:48:01.381Z,16.10
2023-05-16T08:50:31.731Z,16.10
2023-05-16T08:53:08.293Z,16.20
2023-05-16T08:55:36.526Z,16.20
2023-05-16T08:58:04.907Z,16.20
2023-05-16T09:00:32.423Z,16.30
2023-05-16T09:03:01.127Z,16.30
2023-05-16T09:05:30.498Z,16.30
2023-05-16T09:07:58.098Z,16.20
2023-05-16T09:10:25.433Z,16.10
2023-05-16T09:12:52.798Z,16.20
2023-05-16T09:15:21.638Z,16.20
2023-05-16T09:17:49.410Z,16.20
2023-05-16T09:20:20.860Z,16.30
2023-05-16T09:22:56.454Z,16.30
2023-05-16T09:25:30.829Z,16.30
2023-05-16T09:28:01.908Z,16.40
2023-05-16T09:30:35.050Z,16.50
2023-05-16T09:33:03.129Z,16.50
2023-05-16T09:38:02.205Z,16.50
2023-05-16T09:40:29.538Z,16.60
2023-05-16T09:43:07.186Z,16.50
2023-05-16T09:45:36.501Z,16.40
2023-05-16T09:48:14.873Z,16.40
2023-05-16T09:50:49.527Z,16.40
2023-05-16T09:53:17.001Z,16.40
2023-05-16T09:55:44.411Z,16.50
2023-05-16T09:58:11.891Z,16.40
2023-05-16T10:00:41.030Z,16.40
2023-05-16T10:03:08.701Z,16.60
2023-05-16T10:05:37.031Z,16.70
2023-05-16T10:08:05.182Z,16.80
2023-05-16T10:10:38.481Z,17.00
2023-05-16T10:13:08.261Z,17.30
2023-05-16T10:15:37.042Z,17.60
2023-05-16T10:18:08.111Z,17.70
2023-05-16T10:20:36.200Z,17.90
2023-05-16T10:23:05.229Z,18.10
2023-05-16T10:25:36.712Z,18.20
2023-05-16T10:28:04.335Z,18.50
2023-05-16T10:30:34.031Z,18.70
2023-05-16T10:33:04.648Z,19.00
2023-05-16T10:35:32.987Z,18.90
2023-05-16T10:38:01.594Z,19.10
2023-05-16T10:40:30.481Z,18.80
2023-05-16T10:42:58.926Z,18.90
2023-05-16T10:45:26.583Z,18.70
2023-05-16T10:47:59.171Z,18.80
2023-05-16T10:50:43.596Z,18.80
2023-05-16T10:53:42.871Z,18.80
2023-05-16T10:56:11.311Z,18.80
2023-05-16T10:58:40.680Z,18.70
2023-05-16T11:01:27.860Z,18.70
2023-05-16T11:03:58.943Z,18.70
2023-05-16T11:06:45.862Z,18.60
2023-05-16T11:09:16.270Z,18.50
2023-05-16T11:11:52.570Z,18.50
2023-05-16T11:14:32.445Z,18.40
2023-05-16T11:17:11.230Z,18.50
2023-05-16T11:19:50.056Z,18.50
2023-05-16T11:22:23.315Z,18.40
2023-05-16T11:25:02.747Z,18.40
2023-05-16T11:27:30.069Z,18.40
2023-05-16T11:30:06.195Z,18.40
2023-05-16T11:32:42.555Z,18.40
2023-05-16T11:35:14.475Z,18.40
2023-05-16T11:37:45.389Z,18.40
2023-05-16T11:40:14.114Z,18.50
2023-05-16T11:42:42.370Z,18.40
2023-05-16T11:45:15.146Z,18.40
2023-05-16T11:47:47.993Z,18.50
2023-05-16T11:50:20.173Z,18.50
2023-05-16T11:52:50.170Z,18.50
2023-05-16T11:55:28.238Z,18.60
2023-05-16T11:58:00.549Z,18.60
2023-05-16T12:00:27.947Z,18.60
2023-05-16T12:03:03.097Z,18.60
2023-05-16T12:05:32.949Z,18.60
2023-05-16T12:08:00.806Z,18.60
2023-05-16T12:10:28.251Z,18.70
2023-05-16T12:12:56.282Z,18.70
2023-05-16T12:15:23.589Z,18.70
2023-05-16T12:17:52.089Z,18.80
2023-05-16T12:20:19.838Z,18.90
2023-05-16T12:22:47.241Z,19.00
2023-05-16T12:25:37.424Z,19.10
2023-05-16T12:28:07.865Z,19.30
2023-05-16T12:30:35.509Z,19.30
2023-05-16T12:33:08.855Z,19.30
2023-05-16T12:35:39.756Z,19.30
2023-05-16T12:38:09.146Z,19.30
2023-05-16T12:40:41.820Z,19.30
2023-05-16T12:43:23.229Z,19.40
2023-05-16T12:45:55.782Z,19.30
2023-05-16T12:48:35.274Z,19.40
2023-05-16T12:51:33.968Z,19.30
2023-05-16T12:54:11.073Z,19.30
2023-05-16T12:56:41.928Z,19.30
2023-05-16T12:59:09.463Z,19.30
2023-05-16T13:01:36.992Z,19.50
2023-05-16T13:04:05.221Z,19.70
2023-05-16T13:06:48.974Z,19.80
2023-05-16T13:09:20.033Z,19.90
2023-05-16T13:11:50.484Z,19.90
2023-05-16T13:14:17.972Z,19.90
2023-05-16T13:16:45.480Z,20.10
2023-05-16T13:19:12.911Z,20.10
2023-05-16T13:21:40.204Z,20.00
2023-05-16T13:24:07.589Z,20.00
2023-05-16T13:26:35.248Z,20.00
2023-05-16T13:29:02.700Z,19.90
2023-05-16T13:31:30.025Z,19.80
2023-05-16T13:34:07.093Z,19.70
2023-05-16T13:36:49.178Z,19.80
2023-05-16T13:39:21.785Z,19.80
2023-05-16T13:41:49.525Z,19.80
2023-05-16T13:44:17.445Z,19.80
2023-05-16T13:46:45.058Z,19.80
2023-05-16T13:49:12.549Z,19.80
2023-05-16T13:51:39.860Z,19.80
2023-05-16T13:54:07.728Z,19.80
2023-05-16T13:56:35.010Z,19.80
2023-05-16T13:59:06.432Z,19.80
2023-05-16T14:01:34.681Z,19.80
2023-05-16T14:04:02.726Z,19.90
2023-05-16T14:06:30.139Z,19.90
2023-05-16T14:08:57.622Z,20.10
2023-05-16T14:11:29.275Z,20.10
2023-05-16T14:13:57.958Z,20.20
2023-05-16T14:16:26.541Z,20.20
2023-05-16T14:18:54.534Z,20.30
2023-05-16T14:21:22.467Z,20.40
2023-05-16T14:23:58.148Z,20.40
2023-05-16T14:26:26.622Z,20.40
2023-05-16T14:32:29.298Z,20.50
2023-05-16T14:34:57.751Z,20.50
2023-05-16T14:41:49.051Z,20.50
2023-05-16T14:44:17.841Z,20.50
2023-05-16T14:46:46.911Z,20.40
2023-05-16T14:49:15.257Z,20.40
2023-05-16T14:51:49.893Z,20.30
2023-05-16T14:54:17.466Z,20.20
2023-05-16T14:56:45.596Z,20.30
2023-05-16T14:59:13.037Z,20.40
2023-05-16T15:01:41.080Z,20.40
2023-05-16T15:04:08.368Z,20.40
2023-05-16T15:06:35.747Z,20.30
2023-05-16T15:09:03.748Z,20.30
2023-05-16T15:11:32.160Z,20.20
2023-05-16T15:14:00.529Z,20.20
2023-05-16T15:16:29.399Z,20.20
2023-05-16T15:19:04.585Z,20.20
2023-05-16T15:21:35.086Z,20.10
2023-05-16T15:24:02.520Z,20.10
2023-05-16T15:26:30.461Z,20.00
2023-05-16T15:28:57.853Z,19.90
2023-05-16T15:31:25.538Z,19.90
2023-05-16T15:34:01.559Z,19.90
2023-05-16T15:36:29.034Z,19.90
2023-05-16T15:38:56.201Z,19.90
2023-05-16T15:41:39.608Z,19.90
2023-05-16T15:44:10.858Z,19.90
2023-05-16T15:46:38.818Z,19.90
2023-05-16T15:49:06.423Z,20.00
2023-05-16T15:51:33.697Z,20.00
2023-05-16T15:54:02.380Z,20.00
2023-05-16T15:56:29.738Z,20.10
2023-05-16T15:58:57.185Z,20.10
2023-05-16T16:01:24.625Z,20.20
2023-05-16T16:03:52.187Z,20.30
2023-05-16T16:06:19.647Z,20.30
2023-05-16T16:08:47.139Z,20.30
2023-05-16T16:11:14.499Z,20.30
2023-05-16T16:13:41.869Z,20.10
2023-05-16T16:16:09.331Z,20.00
2023-05-16T16:18:39.900Z,19.90
2023-05-16T16:21:07.709Z,19.80
2023-05-16T16:23:35.017Z,19.70
2023-05-16T16:26:02.505Z,19.60
2023-05-16T16:28:29.827Z,19.60
2023-05-16T16:30:57.258Z,19.50
2023-05-16T16:33:24.676Z,19.50
2023-05-16T16:35:53.030Z,19.50
2023-05-16T16:38:20.386Z,19.50
2023-05-16T16:40:47.799Z,19.40
2023-05-16T16:43:15.408Z,19.40
2023-05-16T16:45:42.709Z,19.40
2023-05-16T16:48:22.299Z,19.40
2023-05-16T16:50:49.811Z,19.40
2023-05-16T16:53:17.130Z,19.30
2023-05-16T16:55:45.314Z,19.30
2023-05-16T16:58:12.617Z,19.30
2023-05-16T17:00:39.992Z,19.30
2023-05-16T17:03:59.224Z,19.40
2023-05-16T17:06:26.576Z,19.40
2023-05-16T17:08:53.981Z,19.40
2023-05-16T17:11:23.483Z,19.40
2023-05-16T17:13:51.259Z,19.40
2023-05-16T17:16:18.696Z,19.30
2023-05-16T17:18:46.198Z,19.40
2023-05-16T17:21:13.561Z,19.30
2023-05-16T17:23:43.838Z,19.20
2023-05-16T17:26:13.634Z,19.20
2023-05-16T17:28:41.018Z,19.10
2023-05-16T17:31:08.304Z,19.20
2023-05-16T17:33:35.617Z,19.10
2023-05-16T17:36:02.988Z,19.00
2023-05-16T17:38:30.383Z,18.80
2023-05-16T17:40:57.619Z,18.80
2023-05-16T17:43:25.481Z,18.70
2023-05-16T17:45:52.758Z,18.70
2023-05-16T17:48:20.111Z,18.70
2023-05-16T17:50:47.418Z,18.70
2023-05-16T17:53:15.310Z,18.60
2023-05-16T17:55:42.917Z,18.60
2023-05-16T17:58:10.412Z,18.50
2023-05-16T18:00:48.803Z,18.50
2023-05-16T18:03:16.852Z,18.50
2023-05-16T18:05:44.549Z,18.40
2023-05-16T18:08:11.871Z,18.40
2023-05-16T18:10:50.818Z,18.30
2023-05-16T18:13:19.583Z,18.30
2023-05-16T18:15:46.909Z,18.20
2023-05-16T18:18:14.262Z,18.10
2023-05-16T18:20:42.818Z,18.10
2023-05-16T18:23:10.362Z,18.10
2023-05-16T18:25:37.773Z,18.10
2023-05-16T18:28:05.244Z,18.10
2023-05-16T18:30:32.728Z,18.00
2023-05-16T18:33:00.164Z,18.00
2023-05-16T18:35:28.550Z,17.90
2023-05-16T18:40:24.705Z,17.90
2023-05-16T18:42:52.026Z,17.80
2023-05-16T18:45:19.741Z,17.70
2023-05-16T18:47:47.468Z,17.70
2023-05-16T18:50:15.107Z,17.60
2023-05-16T18:52:42.441Z,17.50
2023-05-16T18:55:10.085Z,17.40
2023-05-16T18:57:37.589Z,17.20
2023-05-16T19:00:06.011Z,17.10
2023-05-16T19:02:41.720Z,17.00
2023-05-16T19:05:25.039Z,16.90
2023-05-16T19:07:52.621Z,16.80
2023-05-16T19:10:20.302Z,16.80
2023-05-16T19:12:53.194Z,16.70
2023-05-16T19:15:20.638Z,16.60
2023-05-16T19:17:48.058Z,16.60
2023-05-16T19:20:15.685Z,16.50
2023-05-16T19:22:42.987Z,16.40
2023-05-16T19:25:10.458Z,16.40
2023-05-16T19:27:44.198Z,16.40
2023-05-16T19:30:12.063Z,16.30
2023-05-16T19:32:39.371Z,16.30
2023-05-16T19:35:07.477Z,16.20
2023-05-16T19:37:35.192Z,16.20
2023-05-16T19:40:04.039Z,16.20
2023-05-16T19:42:31.705Z,16.10
2023-05-16T19:44:59.166Z,16.10
2023-05-16T19:47:26.550Z,16.10
2023-05-16T19:49:54.032Z,16.20
2023-05-16T19:52:21.359Z,16.10
2023-05-16T19:54:48.775Z,16.10
2023-05-16T19:57:16.147Z,16.10
2023-05-16T19:59:43.427Z,16.20
2023-05-16T20:02:10.982Z,16.20
2023-05-16T20:04:38.333Z,16.20
2023-05-16T20:07:07.694Z,16.20
2023-05-16T20:09:37.825Z,16.20
2023-05-16T20:12:05.651Z,16.20
2023-05-16T20:14:34.115Z,16.20
2023-05-16T20:17:01.626Z,16.20
2023-05-16T20:19:32.043Z,16.20
2023-05-16T20:21:59.395Z,16.10
2023-05-16T20:24:26.752Z,16.10
2023-05-16T20:26:54.374Z,16.10
2023-05-16T20:29:21.645Z,16.00
2023-05-16T20:31:49.492Z,15.90
2023-05-16T20:34:16.828Z,16.00
2023-05-16T20:36:44.170Z,16.00
2023-05-16T20:39:11.771Z,15.90
2023-05-16T20:41:39.132Z,15.90
2023-05-16T20:44:06.751Z,15.80
2023-05-16T20:46:34.206Z,15.80
2023-05-16T20:49:01.678Z,15.80
2023-05-16T20:51:29.037Z,15.70
2023-05-16T20:53:56.657Z,15.70
2023-05-16T20:56:24.372Z,15.70
2023-05-16T20:58:52.158Z,15.70
2023-05-16T21:01:26.059Z,15.70
2023-05-16T21:03:55.033Z,15.70
2023-05-16T21:06:22.538Z,15.80
2023-05-16T21:08:49.988Z,15.70
2023-05-16T21:11:17.419Z,15.60
2023-05-16T21:13:44.884Z,15.60
2023-05-16T21:16:13.700Z,15.60
2023-05-16T21:18:45.235Z,15.60
2023-05-16T21:21:12.768Z,15.70
2023-05-16T21:23:42.759Z,15.60
2023-05-16T21:26:11.541Z,15.60
2023-05-16T21:28:54.072Z,15.60
2023-05-16T21:31:23.436Z,15.70
2023-05-16T21:33:52.350Z,15.70
2023-05-16T21:36:22.452Z,15.70
2023-05-16T21:38:54.167Z,15.60
2023-05-16T21:41:24.004Z,15.60
2023-05-16T21:43:52.759Z,15.60
2023-05-16T21:46:21.422Z,15.60
2023-05-16T21:48:49.885Z,15.60
2023-05-16T21:51:19.816Z,15.60
2023-05-16T21:53:47.384Z,15.60
2023-05-16T21:56:16.895Z,15.60
2023-05-16T21:58:44.173Z,15.60
2023-05-16T22:01:11.661Z,15.70
2023-05-16T22:03:39.109Z,15.60
2023-05-16T22:06:08.295Z,15.60
2023-05-16T22:12:48.371Z,15.60
2023-05-16T22:15:16.500Z,15.60
2023-05-16T22:17:44.567Z,15.60
2023-05-16T22:20:12.330Z,15.60
2023-05-16T22:22:39.952Z,15.60
2023-05-16T22:25:08.470Z,15.60
2023-05-16T22:27:35.760Z,15.60
2023-05-16T22:30:03.676Z,15.60
2023-05-16T22:32:31.203Z,15.60
2023-05-16T22:34:58.877Z,15.60
2023-05-16T22:37:26.935Z,15.60
2023-05-16T22:39:54.351Z,15.60
2023-05-16T22:42:21.858Z,15.60
2023-05-16T22:44:49.197Z,15.60
2023-05-16T22:47:16.553Z,15.60
2023-05-16T22:49:44.328Z,15.50
2023-05-16T22:52:11.714Z,15.40
2023-05-16T22:54:41.544Z,15.50
2023-05-16T22:57:08.802Z,15.40
2023-05-16T22:59:36.214Z,15.40
2023-05-16T23:02:03.864Z,15.40
2023-05-16T23:04:31.375Z,15.40
2023-05-16T23:06:58.696Z,15.50
2023-05-16T23:09:26.852Z,15.50
2023-05-16T23:11:54.284Z,15.50
2023-05-16T23:14:22.475Z,15.50
2023-05-16T23:16:50.039Z,15.40
2023-05-16T23:19:17.475Z,15.40
2023-05-16T23:21:44.902Z,15.40
2023-05-16T23:24:12.286Z,15.30
2023-05-16T23:26:39.779Z,15.30
2023-05-16T23:29:07.198Z,15.30
2023-05-16T23:31:34.676Z,15.30
2023-05-16T23:34:05.289Z,15.30
2023-05-16T23:36:32.633Z,15.30
2023-05-16T23:38:59.920Z,15.40
2023-05-16T23:41:27.272Z,15.30
2023-05-16T23:43:54.660Z,15.30
2023-05-16T23:46:21.989Z,15.30
2023-05-16T23:48:49.295Z,15.30
2023-05-16T23:51:17.997Z,15.40
2023-05-16T23:53:45.618Z,15.30
2023-05-16T23:56:12.993Z,15.40
2023-05-16T23:58:40.547Z,15.40
